Accueil
METAR-TAF:

METAR-TAF

Aéroports :

Gilze-Rijen, Pays-Bas

latitude: 51-34N, longitude: 004-56E, altitude: 15 m

Observation

Le bulletin a été fait il y a 16 minutes, à 01:41 UTC
Vent 6 kt de sud-ouest, variant entre sud/sud-ouest et ouest
Température 16°C
Humidité 77%
Pression 1015 hPa
Visibilité 10 km ou plus
Quelques nuages à une hauteur de 1800 ft

METAR: EHGR 240141Z AUTO 23006KT 200V270 9999 FEW018 16/12 Q1015 BLU

Heure: 03:57 (01:57 UTC)

Prévision

Le bulletin a été fait il y a 13 heures et 34 minutes, à 12:23 UTC
Prévision valable du 23 à 13 UTC au 24 à 01 UTC
Vent 11 kt de sud-ouest
Visibilité 10 km ou plus
Nuages épars à une hauteur de 4000 ft

TAF: EHGR 231223Z 2313/2401 23011KT 9999 SCT040

Observations et prévisions météorologiques de plus de 4000 aéroports (messages METAR et TAF).

Les stations disponibles sont représentées par des disques jaunes et rouges sur la carte.

Passer la souris dessus pour voir le nom de la station.

Cliquer dessus pour voir les observations et prévisions météorologiques.

Pour changer de carte: cliquez sur les boutons verts avec une croix noire pour zoomer, sur le bouton vert avec un tiret pour effectuer un zoom arrière, ou sur les flèches vertes pour les cartes adjacentes.


METAR-TAF: